Time;durP1;ratioP1;P1;durP2;ratioP2;P2;SDS_P1;SDS_P2;PMS_P1;PMS_P2;Temp;Humidity;BMP_temperature;BMP_pressure;BME280_temperature;BME280_humidity;BME280_pressure;Samples;Min_cycle;Max_cycle;Signal;HPM_P1;HPM_P2
2022/11/14 00:02:07;;;;;;;53.88;49.17;;;11.80;99.90;;;;;;5033740;28;20037;-80
2022/11/14 00:04:33;;;;;;;68.72;62.97;;;11.80;99.90;;;;;;5054803;28;20021;-80
2022/11/14 00:06:59;;;;;;;62.08;56.92;;;11.80;99.90;;;;;;5055665;28;20033;-80
2022/11/14 00:09:26;;;;;;;61.20;55.78;;;11.80;99.90;;;;;;5055258;28;20028;-80
2022/11/14 00:11:52;;;;;;;58.40;53.55;;;11.90;99.90;;;;;;5055556;28;20036;-80
2022/11/14 00:14:19;;;;;;;62.25;56.97;;;11.90;99.90;;;;;;5055381;28;20386;-80
2022/11/14 00:16:45;;;;;;;63.65;58.38;;;11.90;99.90;;;;;;5054109;28;20052;-80
2022/11/14 00:19:11;;;;;;;65.95;60.08;;;12.00;99.90;;;;;;5055270;28;20036;-80
2022/11/14 00:21:37;;;;;;;63.80;58.35;;;12.00;99.90;;;;;;5036789;28;20029;-80
2022/11/14 00:24:04;;;;;;;60.80;55.58;;;12.00;99.90;;;;;;5054978;28;20029;-80
2022/11/14 00:26:30;;;;;;;55.45;50.25;;;11.90;99.90;;;;;;5055129;28;20025;-80
2022/11/14 00:28:56;;;;;;;55.00;50.13;;;11.70;99.90;;;;;;5055165;28;20025;-80
2022/11/14 00:31:22;;;;;;;57.03;51.33;;;11.60;99.90;;;;;;5036300;28;20041;-80
2022/11/14 00:33:48;;;;;;;56.85;51.65;;;11.50;99.90;;;;;;5054982;28;20033;-80
2022/11/14 00:36:14;;;;;;;56.70;51.30;;;11.40;99.90;;;;;;5054089;28;20395;-80
2022/11/14 00:38:40;;;;;;;55.95;50.50;;;11.30;99.90;;;;;;5036043;28;20040;-80
2022/11/14 00:41:06;;;;;;;56.67;50.67;;;11.20;99.90;;;;;;5036465;28;20041;-80
2022/11/14 00:43:32;;;;;;;54.45;48.90;;;11.10;99.90;;;;;;5036419;28;20052;-80
2022/11/14 00:45:59;;;;;;;53.92;48.67;;;11.10;99.90;;;;;;5053471;28;20025;-80
2022/11/14 00:48:25;;;;;;;52.95;47.80;;;11.10;99.90;;;;;;5054795;28;20025;-80
2022/11/14 00:50:51;;;;;;;55.53;50.05;;;11.10;99.90;;;;;;5054700;28;20489;-80
2022/11/14 00:53:17;;;;;;;51.00;46.58;;;11.00;99.90;;;;;;5054387;28;20047;-80
2022/11/14 00:55:43;;;;;;;50.50;46.05;;;11.10;99.90;;;;;;5054115;28;20381;-80
2022/11/14 00:58:09;;;;;;;52.83;48.38;;;11.00;99.90;;;;;;5054610;28;20040;-80
2022/11/14 01:00:35;;;;;;;58.65;53.55;;;11.00;99.90;;;;;;5054051;28;20029;-80
2022/11/14 01:03:01;;;;;;;56.45;51.47;;;11.00;99.90;;;;;;5036935;28;20037;-80
2022/11/14 01:05:27;;;;;;;54.35;49.53;;;11.10;99.90;;;;;;5054490;28;20029;-80
2022/11/14 01:07:53;;;;;;;60.55;55.20;;;11.10;99.90;;;;;;5054081;28;20040;-80
2022/11/14 01:10:20;;;;;;;57.42;52.47;;;11.00;99.90;;;;;;5036727;28;20033;-80
2022/11/14 01:12:46;;;;;;;54.70;49.67;;;11.10;99.90;;;;;;5036665;28;20029;-80
2022/11/14 01:15:12;;;;;;;53.80;48.90;;;11.20;99.90;;;;;;5035055;28;20059;-80
2022/11/14 01:17:38;;;;;;;50.47;46.15;;;11.40;99.90;;;;;;5054437;28;20029;-80
2022/11/14 01:20:05;;;;;;;52.38;47.70;;;11.40;99.90;;;;;;5053532;28;20045;-80
2022/11/14 01:22:31;;;;;;;51.30;46.88;;;11.30;99.90;;;;;;5054091;28;20410;-80
2022/11/14 01:25:00;;;;;;;52.35;47.97;;;11.30;99.90;;;;;;5054195;28;20040;-80
2022/11/14 01:27:29;;;;;;;51.65;47.25;;;11.30;99.90;;;;;;5036864;28;20028;-80
2022/11/14 01:29:55;;;;;;;54.50;49.40;;;11.20;99.90;;;;;;5054091;28;20032;-80
2022/11/14 01:32:21;;;;;;;54.38;49.28;;;10.90;99.90;;;;;;5052593;28;20040;-80
2022/11/14 01:34:47;;;;;;;55.28;50.55;;;10.80;99.90;;;;;;5053917;28;20470;-80
2022/11/14 01:37:13;;;;;;;59.25;54.15;;;10.70;99.90;;;;;;5034953;28;20032;-80
2022/11/14 01:39:39;;;;;;;60.80;55.53;;;10.70;99.90;;;;;;5036132;28;20462;-80
2022/11/14 01:42:05;;;;;;;64.07;58.75;;;10.70;99.90;;;;;;5053782;28;20052;-80
2022/11/14 01:44:48;;;;;;;66.30;60.85;;;10.60;99.90;;;;;;5053796;28;20393;-80
2022/11/14 01:47:17;;;;;;;70.07;64.47;;;10.60;99.90;;;;;;5053420;28;20481;-81
2022/11/14 01:49:46;;;;;;;68.40;62.78;;;10.70;99.90;;;;;;5035870;28;20029;-81
2022/11/14 01:52:18;;;;;;;68.65;63.45;;;10.70;99.90;;;;;;5019381;28;20366;-81
2022/11/14 01:54:46;;;;;;;71.95;66.30;;;10.70;99.90;;;;;;5036057;28;20469;-81
2022/11/14 01:57:13;;;;;;;73.05;67.32;;;10.70;99.90;;;;;;5036096;28;20062;-81
2022/11/14 01:59:41;;;;;;;69.25;63.85;;;10.70;99.90;;;;;;5035741;28;20025;-81
2022/11/14 02:02:19;;;;;;;68.10;62.53;;;10.80;99.90;;;;;;5002461;28;20025;-81
2022/11/14 02:04:54;;;;;;;61.67;56.75;;;10.90;99.90;;;;;;5052944;28;20043;-80
2022/11/14 02:07:20;;;;;;;57.17;52.55;;;10.90;99.90;;;;;;5035178;28;20047;-81
2022/11/14 02:09:47;;;;;;;59.78;54.92;;;10.90;99.90;;;;;;5019230;28;20029;-81
2022/11/14 02:12:14;;;;;;;68.25;62.42;;;10.90;99.90;;;;;;5019165;28;20497;-81
2022/11/14 02:14:41;;;;;;;58.88;54.28;;;10.90;99.90;;;;;;5053111;28;20032;-81
2022/11/14 02:17:07;;;;;;;59.60;54.92;;;10.90;99.90;;;;;;5052643;28;20033;-81
2022/11/14 02:19:54;;;;;;;60.28;55.25;;;10.80;99.90;;;;;;5053238;28;20047;-81
2022/11/14 02:22:20;;;;;;;55.70;51.30;;;10.70;99.90;;;;;;5034855;28;20382;-81
2022/11/14 02:24:46;;;;;;;54.80;50.20;;;10.60;99.90;;;;;;5035321;28;20032;-81
2022/11/14 02:27:12;;;;;;;54.65;50.33;;;10.70;99.90;;;;;;5052704;28;20404;-81
2022/11/14 02:29:38;;;;;;;56.45;51.95;;;10.60;99.90;;;;;;5052174;28;20028;-81
2022/11/14 02:32:04;;;;;;;57.90;53.10;;;10.50;99.90;;;;;;5051713;28;20033;-81
2022/11/14 02:34:31;;;;;;;58.72;53.95;;;10.60;99.90;;;;;;5034715;28;20033;-81
2022/11/14 02:36:57;;;;;;;61.58;56.78;;;10.50;99.90;;;;;;5051178;28;20041;-81
2022/11/14 02:39:23;;;;;;;60.10;55.15;;;10.60;99.90;;;;;;5035033;28;20051;-80
2022/11/14 02:41:50;;;;;;;56.67;51.85;;;10.50;99.90;;;;;;5052721;28;20053;-80
2022/11/14 02:44:16;;;;;;;63.03;57.15;;;10.70;99.90;;;;;;5052707;28;20021;-81
2022/11/14 02:46:42;;;;;;;67.55;58.08;;;10.70;99.90;;;;;;5051185;28;20029;-81
2022/11/14 02:49:08;;;;;;;66.00;53.40;;;10.70;99.90;;;;;;5052328;28;20036;-81
2022/11/14 02:51:34;;;;;;;62.00;55.88;;;10.60;99.90;;;;;;5034877;28;20357;-80
2022/11/14 02:54:00;;;;;;;61.08;55.22;;;10.60;99.90;;;;;;5052595;28;20037;-80
2022/11/14 02:56:27;;;;;;;60.50;54.13;;;10.60;99.90;;;;;;5051991;28;20377;-80
2022/11/14 02:58:53;;;;;;;98.00;55.42;;;10.60;99.90;;;;;;5052628;28;20033;-80
2022/11/14 03:01:19;;;;;;;58.60;52.72;;;10.80;99.90;;;;;;5051388;28;20116;-81
2022/11/14 03:03:45;;;;;;;62.97;49.90;;;10.80;99.90;;;;;;5045222;28;20514;-81
2022/11/14 03:06:11;;;;;;;81.10;52.90;;;10.90;99.90;;;;;;5026992;28;20045;-81
2022/11/14 03:08:37;;;;;;;54.63;48.92;;;10.90;99.90;;;;;;5040058;28;20500;-80
2022/11/14 03:11:04;;;;;;;51.45;47.25;;;11.00;99.90;;;;;;5042250;28;20033;-80
2022/11/14 03:13:30;;;;;;;54.17;49.80;;;11.00;99.90;;;;;;5023684;28;20040;-81
2022/11/14 03:15:57;;;;;;;52.83;48.65;;;10.80;99.90;;;;;;5030608;28;20033;-80
2022/11/14 03:18:23;;;;;;;53.90;49.17;;;10.80;99.90;;;;;;5045519;28;20488;-80
2022/11/14 03:20:49;;;;;;;51.67;47.55;;;10.60;99.90;;;;;;5015440;28;20116;-80
2022/11/14 03:23:15;;;;;;;51.75;47.50;;;10.60;99.90;;;;;;5050187;28;20417;-81
2022/11/14 03:25:41;;;;;;;50.83;46.63;;;10.80;99.90;;;;;;5051004;28;20036;-80
2022/11/14 03:28:07;;;;;;;52.83;48.58;;;10.80;99.90;;;;;;5032575;28;20045;-80
2022/11/14 03:30:33;;;;;;;51.00;46.67;;;10.80;99.90;;;;;;5050664;28;20036;-80
2022/11/14 03:32:59;;;;;;;48.72;44.58;;;10.80;99.90;;;;;;5049862;28;20049;-80
2022/11/14 03:35:25;;;;;;;47.58;43.72;;;10.80;99.90;;;;;;5050652;28;20553;-80
2022/11/14 03:37:51;;;;;;;43.65;40.05;;;10.80;99.90;;;;;;5034289;28;20028;-81
2022/11/14 03:40:17;;;;;;;47.20;43.30;;;10.90;99.90;;;;;;5056100;28;20393;-80
2022/11/14 03:42:43;;;;;;;46.25;42.40;;;10.90;99.90;;;;;;5056062;28;20036;-80
2022/11/14 03:45:11;;;;;;;46.38;42.42;;;11.00;99.90;;;;;;5055731;28;20102;-80
2022/11/14 03:47:37;;;;;;;45.55;41.53;;;11.00;99.90;;;;;;5055764;28;20393;-80
2022/11/14 03:50:03;;;;;;;44.92;41.00;;;10.90;99.90;;;;;;5055934;28;20029;-80
2022/11/14 03:52:30;;;;;;;40.85;37.40;;;10.90;99.90;;;;;;5055903;28;20037;-80
2022/11/14 03:54:56;;;;;;;43.40;39.80;;;11.00;99.90;;;;;;5055698;28;20052;-80
2022/11/14 03:57:22;;;;;;;42.90;39.45;;;11.10;99.90;;;;;;5037977;28;20033;-80
2022/11/14 03:59:48;;;;;;;42.35;38.72;;;11.00;99.90;;;;;;5055795;28;20032;-80
2022/11/14 04:02:14;;;;;;;40.50;37.10;;;11.00;99.90;;;;;;5020180;28;20484;-80
2022/11/14 04:04:40;;;;;;;40.55;37.15;;;10.90;99.90;;;;;;5055555;28;20033;-80
2022/11/14 04:07:06;;;;;;;44.70;41.30;;;10.90;99.90;;;;;;5054523;28;20489;-82
2022/11/14 04:09:32;;;;;;;44.95;41.10;;;10.70;99.90;;;;;;5055529;28;20037;-82
2022/11/14 04:11:58;;;;;;;46.75;42.85;;;10.70;99.90;;;;;;5054254;28;20413;-82
2022/11/14 04:14:24;;;;;;;44.80;41.00;;;10.60;99.90;;;;;;5055572;28;20043;-82
2022/11/14 04:16:50;;;;;;;45.70;42.10;;;10.30;99.90;;;;;;5054566;28;20400;-82
2022/11/14 04:19:16;;;;;;;45.30;41.72;;;10.20;99.90;;;;;;5055427;28;20029;-82
2022/11/14 04:21:42;;;;;;;44.10;40.53;;;10.10;99.90;;;;;;5055543;28;20056;-82
2022/11/14 04:24:09;;;;;;;45.88;42.03;;;10.10;99.90;;;;;;5054846;28;20037;-82
2022/11/14 04:26:35;;;;;;;44.28;40.80;;;10.00;99.90;;;;;;5055449;28;20040;-81
2022/11/14 04:29:01;;;;;;;44.55;40.72;;;10.00;99.90;;;;;;5055276;28;20192;-82
2022/11/14 04:31:27;;;;;;;44.67;41.03;;;9.90;99.90;;;;;;5054509;28;20041;-81
2022/11/14 04:33:53;;;;;;;42.70;39.00;;;9.90;99.90;;;;;;5037436;28;20036;-81
2022/11/14 04:36:19;;;;;;;43.45;39.72;;;9.80;99.90;;;;;;5055277;28;20029;-82
2022/11/14 04:38:45;;;;;;;42.83;39.38;;;9.80;99.90;;;;;;5055463;28;20025;-81
2022/11/14 04:41:12;;;;;;;43.90;40.30;;;9.90;99.90;;;;;;5055887;28;20064;-82
2022/11/14 04:43:38;;;;;;;42.63;39.25;;;9.90;99.90;;;;;;5037631;28;20040;-82
2022/11/14 04:46:04;;;;;;;43.92;40.13;;;9.90;99.90;;;;;;5036078;28;20049;-82
2022/11/14 04:48:30;;;;;;;45.13;41.58;;;9.90;99.90;;;;;;5054825;28;20029;-82
2022/11/14 04:50:56;;;;;;;47.38;43.28;;;9.90;99.90;;;;;;5036933;28;20033;-81
2022/11/14 04:53:22;;;;;;;46.05;42.55;;;9.90;99.90;;;;;;5054818;28;20036;-81
2022/11/14 04:55:48;;;;;;;49.03;45.05;;;9.90;99.90;;;;;;5054902;28;20044;-82
2022/11/14 04:58:14;;;;;;;47.75;44.15;;;9.90;99.90;;;;;;5054771;28;20029;-82
2022/11/14 05:00:40;;;;;;;49.67;45.63;;;10.20;99.90;;;;;;5053747;28;20036;-82
2022/11/14 05:03:07;;;;;;;49.88;46.15;;;10.30;99.90;;;;;;5053470;28;20033;-82
2022/11/14 05:05:33;;;;;;;51.22;47.53;;;10.40;99.90;;;;;;5054431;28;20029;-82
2022/11/14 05:07:59;;;;;;;46.50;42.85;;;10.20;99.90;;;;;;5054488;28;20036;-81
2022/11/14 05:10:25;;;;;;;48.72;44.20;;;10.00;99.90;;;;;;5037080;28;20035;-82
2022/11/14 05:12:55;;;;;;;48.03;44.38;;;10.10;99.90;;;;;;5054503;28;20564;-81
2022/11/14 05:15:21;;;;;;;50.25;46.50;;;10.10;99.90;;;;;;5035487;28;20049;-82
2022/11/14 05:17:47;;;;;;;50.75;47.15;;;10.10;99.90;;;;;;5036686;28;20458;-82
2022/11/14 05:20:13;;;;;;;48.85;45.03;;;10.00;99.90;;;;;;5030388;28;20033;-82
2022/11/14 05:22:39;;;;;;;51.13;47.13;;;10.00;99.90;;;;;;5064665;28;20041;-81
2022/11/14 05:25:06;;;;;;;49.22;45.47;;;10.00;99.90;;;;;;5043763;28;20492;-81
2022/11/14 05:27:32;;;;;;;49.17;45.78;;;10.00;99.90;;;;;;5062695;28;20033;-81
2022/11/14 05:29:58;;;;;;;50.97;47.28;;;10.10;99.90;;;;;;5061940;28;20052;-82
2022/11/14 05:32:24;;;;;;;52.22;48.70;;;10.20;99.90;;;;;;5055488;28;20033;-82
2022/11/14 05:34:50;;;;;;;48.78;45.50;;;10.20;99.90;;;;;;5056892;28;20037;-81
2022/11/14 05:37:17;;;;;;;57.80;53.22;;;10.20;99.90;;;;;;5059516;28;20029;-82
2022/11/14 05:39:43;;;;;;;52.45;48.50;;;10.30;99.90;;;;;;5061325;28;20052;-82
2022/11/14 05:42:09;;;;;;;46.97;43.53;;;10.50;99.90;;;;;;5037580;28;20041;-81
2022/11/14 05:44:35;;;;;;;49.03;45.47;;;10.60;99.90;;;;;;5037094;28;20041;-82
2022/11/14 05:47:01;;;;;;;44.65;41.50;;;10.60;99.90;;;;;;5033536;28;20284;-82
2022/11/14 05:49:27;;;;;;;49.05;45.35;;;10.70;99.90;;;;;;5033561;28;20036;-82
2022/11/14 05:51:53;;;;;;;47.72;44.35;;;10.70;99.90;;;;;;5033834;28;20497;-82
2022/11/14 05:54:19;;;;;;;43.30;40.40;;;10.70;99.90;;;;;;5032529;28;20037;-82
2022/11/14 05:56:45;;;;;;;45.58;42.35;;;10.70;99.90;;;;;;5043163;28;20382;-82
2022/11/14 05:59:11;;;;;;;45.65;42.00;;;10.60;99.90;;;;;;5045433;28;20025;-82
2022/11/14 06:01:37;;;;;;;44.85;41.08;;;10.60;99.90;;;;;;5034389;28;20413;-82
2022/11/14 06:04:05;;;;;;;44.05;40.53;;;10.60;99.90;;;;;;5033412;28;20026;-82
2022/11/14 06:06:31;;;;;;;41.40;38.25;;;10.60;99.90;;;;;;5033932;28;20037;-81
2022/11/14 06:08:57;;;;;;;42.22;38.83;;;10.60;99.90;;;;;;5033835;28;20487;-82
2022/11/14 06:11:23;;;;;;;40.72;37.53;;;10.70;99.90;;;;;;5039467;28;20041;-82
2022/11/14 06:13:49;;;;;;;42.15;39.15;;;10.80;99.90;;;;;;5040824;28;20026;-82
2022/11/14 06:16:16;;;;;;;42.42;39.22;;;10.90;99.90;;;;;;5035796;28;20052;-82
2022/11/14 06:18:43;;;;;;;45.90;42.60;;;10.80;99.90;;;;;;5033113;28;20033;-82
2022/11/14 06:21:17;;;;;;;47.60;44.28;;;10.90;99.90;;;;;;5035830;28;20513;-82
2022/11/14 06:23:43;;;;;;;41.28;38.30;;;11.00;99.90;;;;;;5044530;28;20029;-82
2022/11/14 06:26:31;;;;;;;37.08;34.22;;;11.00;99.90;;;;;;5039757;28;20029;-82
2022/11/14 06:28:58;;;;;;;38.55;35.67;;;11.00;99.90;;;;;;5017151;28;20036;-82
2022/11/14 06:31:24;;;;;;;37.95;34.95;;;11.00;99.90;;;;;;5032503;28;20482;-82
2022/11/14 06:33:50;;;;;;;37.63;34.97;;;10.90;99.90;;;;;;5030827;28;20025;-82
2022/11/14 06:36:16;;;;;;;40.45;37.35;;;10.90;99.90;;;;;;5034879;28;20052;-81
2022/11/14 06:38:42;;;;;;;37.95;35.03;;;10.80;99.90;;;;;;5050088;28;20035;-81
2022/11/14 06:41:13;;;;;;;35.92;33.28;;;10.80;99.90;;;;;;5057302;28;20059;-82
2022/11/14 06:43:41;;;;;;;34.60;31.85;;;11.00;99.90;;;;;;5052036;28;20394;-82
2022/11/14 06:46:08;;;;;;;33.88;31.10;;;11.00;99.90;;;;;;5015485;28;20040;-82
2022/11/14 06:48:34;;;;;;;34.35;31.85;;;11.10;99.90;;;;;;5034817;28;20081;-81
2022/11/14 06:51:01;;;;;;;33.90;31.40;;;11.00;99.90;;;;;;5052604;28;20017;-81
2022/11/14 06:53:28;;;;;;;32.80;30.20;;;11.10;99.90;;;;;;5056865;28;20032;-82
2022/11/14 06:55:58;;;;;;;32.78;30.08;;;11.00;99.90;;;;;;5058174;28;20052;-81
2022/11/14 06:58:31;;;;;;;33.97;31.27;;;11.10;99.90;;;;;;5055618;28;20062;-81
2022/11/14 07:01:09;;;;;;;32.72;30.30;;;11.10;99.90;;;;;;5038181;28;20040;-81
2022/11/14 07:03:35;;;;;;;33.97;31.05;;;11.10;99.90;;;;;;5056522;28;20029;-82
2022/11/14 07:06:02;;;;;;;34.15;31.58;;;11.10;99.90;;;;;;5023865;28;20385;-81
2022/11/14 07:08:29;;;;;;;37.65;34.83;;;11.10;99.90;;;;;;5039397;28;20029;-82
2022/11/14 07:11:03;;;;;;;44.40;41.25;;;10.90;99.90;;;;;;5033976;28;20397;-82
2022/11/14 07:13:30;;;;;;;37.97;35.00;;;10.90;99.90;;;;;;5051259;28;20058;-81
2022/11/14 07:15:56;;;;;;;34.20;31.55;;;11.00;99.90;;;;;;5050932;28;20504;-82
2022/11/14 07:18:22;;;;;;;34.22;31.60;;;11.00;99.90;;;;;;5041295;28;20036;-80
2022/11/14 07:20:48;;;;;;;34.50;31.73;;;11.00;99.90;;;;;;5056937;28;20029;-81
2022/11/14 07:23:14;;;;;;;36.35;33.30;;;11.00;99.90;;;;;;5052695;28;20453;-82
2022/11/14 07:25:40;;;;;;;34.10;31.20;;;11.00;99.90;;;;;;5052165;28;20033;-81
2022/11/14 07:28:07;;;;;;;34.85;32.25;;;11.00;99.90;;;;;;5034659;28;20029;-82
2022/11/14 07:30:33;;;;;;;32.90;30.40;;;11.00;99.90;;;;;;5051763;28;20486;-82
2022/11/14 07:32:59;;;;;;;34.22;31.35;;;11.00;99.90;;;;;;5017136;28;20032;-81
2022/11/14 07:35:25;;;;;;;34.20;31.65;;;11.00;99.90;;;;;;5016480;28;20052;-81
2022/11/14 07:37:51;;;;;;;36.97;34.30;;;11.00;99.90;;;;;;5052170;28;20032;-81
2022/11/14 07:40:18;;;;;;;39.20;36.45;;;11.00;99.90;;;;;;5051910;28;20049;-82
2022/11/14 07:42:44;;;;;;;43.28;39.63;;;11.00;99.90;;;;;;5034372;28;20021;-81
2022/11/14 07:45:10;;;;;;;39.72;36.67;;;11.00;99.90;;;;;;5049749;28;20033;-81
2022/11/14 07:47:36;;;;;;;48.35;45.10;;;11.10;99.90;;;;;;5051071;28;20051;-81
2022/11/14 07:50:02;;;;;;;40.25;37.25;;;11.10;99.90;;;;;;5034265;28;20378;-81
2022/11/14 07:52:30;;;;;;;36.42;33.88;;;11.20;99.90;;;;;;5034247;28;20036;-81
2022/11/14 07:54:56;;;;;;;42.58;39.10;;;11.10;99.90;;;;;;5054745;28;20512;-81
2022/11/14 07:57:22;;;;;;;45.83;41.90;;;11.10;99.90;;;;;;5055012;28;20028;-81
2022/11/14 07:59:48;;;;;;;53.85;49.08;;;11.20;99.90;;;;;;5034490;28;20029;-82
2022/11/14 08:02:14;;;;;;;88.45;57.90;;;11.20;99.90;;;;;;5051341;28;20040;-82
2022/11/14 08:04:41;;;;;;;53.70;49.38;;;11.20;99.90;;;;;;5050823;28;20051;-81
2022/11/14 08:07:07;;;;;;;70.90;64.10;;;11.20;99.90;;;;;;5034135;28;20033;-81
2022/11/14 08:09:33;;;;;;;52.13;47.45;;;11.20;99.90;;;;;;5051508;28;20032;-81
2022/11/14 08:11:59;;;;;;;46.78;43.03;;;11.30;99.90;;;;;;5051842;28;20029;-81
2022/11/14 08:14:26;;;;;;;43.03;39.45;;;11.30;99.90;;;;;;5051561;28;20033;-82
2022/11/14 08:16:52;;;;;;;44.28;41.20;;;11.40;99.90;;;;;;5033735;28;20033;-82
2022/11/14 08:19:18;;;;;;;42.63;39.28;;;11.40;99.90;;;;;;5051683;28;20378;-82
2022/11/14 08:21:44;;;;;;;41.42;38.33;;;11.40;99.90;;;;;;5050515;28;20500;-81
2022/11/14 08:24:10;;;;;;;42.92;39.42;;;11.40;99.90;;;;;;5018337;28;20378;-82
2022/11/14 08:26:36;;;;;;;42.80;39.25;;;11.40;99.90;;;;;;5054195;28;20017;-82
2022/11/14 08:29:02;;;;;;;44.08;39.25;;;11.30;99.90;;;;;;5055272;28;20033;-82
2022/11/14 08:31:28;;;;;;;45.90;41.85;;;11.30;99.90;;;;;;5054809;28;20047;-82
2022/11/14 08:33:54;;;;;;;45.63;41.25;;;11.30;99.90;;;;;;5055161;28;20029;-81
2022/11/14 08:36:20;;;;;;;48.60;43.92;;;11.20;99.90;;;;;;5054863;28;20107;-81
2022/11/14 08:38:47;;;;;;;43.47;39.35;;;11.20;99.90;;;;;;5037351;28;20025;-81
2022/11/14 08:41:13;;;;;;;42.92;39.22;;;11.30;99.90;;;;;;5055077;28;20053;-81
2022/11/14 08:43:39;;;;;;;43.13;38.85;;;11.40;99.90;;;;;;5054177;28;20036;-81
2022/11/14 08:46:05;;;;;;;41.63;38.08;;;11.50;99.90;;;;;;5054538;28;20025;-81
2022/11/14 08:48:31;;;;;;;40.25;37.22;;;11.50;99.90;;;;;;5054917;28;20036;-81
2022/11/14 08:51:04;;;;;;;40.33;37.22;;;11.50;99.90;;;;;;5054552;28;20048;-81
2022/11/14 08:53:30;;;;;;;41.10;38.00;;;11.50;99.90;;;;;;5036918;28;20038;-81
2022/11/14 08:55:56;;;;;;;40.47;36.92;;;11.40;99.90;;;;;;5054842;28;20033;-81
2022/11/14 08:58:22;;;;;;;40.78;37.80;;;11.50;99.90;;;;;;5037030;28;20025;-81
2022/11/14 09:00:50;;;;;;;39.75;36.70;;;11.60;99.90;;;;;;5054153;28;20039;-82
2022/11/14 09:03:16;;;;;;;38.45;35.45;;;11.60;99.90;;;;;;5035980;28;20033;-82
2022/11/14 09:05:43;;;;;;;38.72;35.63;;;11.60;99.90;;;;;;5054568;28;20036;-81
2022/11/14 09:08:09;;;;;;;41.67;38.50;;;11.70;99.90;;;;;;5053458;28;20036;-82
2022/11/14 09:10:36;;;;;;;40.75;37.63;;;11.90;99.90;;;;;;5054672;28;20033;-81
2022/11/14 09:13:02;;;;;;;42.05;38.83;;;12.00;99.90;;;;;;5054435;28;20021;-82
2022/11/14 09:15:28;;;;;;;40.03;37.13;;;12.00;99.90;;;;;;5053848;28;20056;-82
2022/11/14 09:17:55;;;;;;;39.40;36.60;;;12.10;99.90;;;;;;5053446;28;20029;-82
2022/11/14 09:20:22;;;;;;;43.03;39.95;;;12.30;99.90;;;;;;5036322;28;20466;-82
2022/11/14 09:22:50;;;;;;;42.33;39.20;;;12.40;99.90;;;;;;5054168;28;20032;-82
2022/11/14 09:25:17;;;;;;;43.80;40.78;;;12.40;99.90;;;;;;5053580;28;20037;-82
2022/11/14 09:27:43;;;;;;;41.95;39.05;;;12.50;99.90;;;;;;5054065;28;20484;-82
2022/11/14 09:30:09;;;;;;;42.42;39.40;;;12.60;99.90;;;;;;5053713;28;20025;-82
2022/11/14 09:32:35;;;;;;;44.25;41.08;;;12.70;99.90;;;;;;5053911;28;20381;-82
2022/11/14 09:35:02;;;;;;;42.03;39.05;;;12.80;99.90;;;;;;5053608;28;20032;-82
2022/11/14 09:37:28;;;;;;;44.72;41.28;;;12.90;99.90;;;;;;5019023;28;20033;-82
2022/11/14 09:39:54;;;;;;;43.42;40.30;;;13.00;99.90;;;;;;5053920;28;20044;-82
2022/11/14 09:42:51;;;;;;;41.40;37.90;;;13.10;99.90;;;;;;5036173;28;20037;-82
2022/11/14 09:45:17;;;;;;;40.78;37.58;;;13.20;99.90;;;;;;5035792;28;20036;-82
2022/11/14 09:47:48;;;;;;;43.47;40.30;;;13.30;99.90;;;;;;5053766;28;20096;-82
2022/11/14 09:50:19;;;;;;;42.65;38.97;;;13.30;99.90;;;;;;5019303;28;20044;-82
2022/11/14 09:52:48;;;;;;;41.75;38.67;;;13.50;99.90;;;;;;5019758;28;20021;-82
2022/11/14 09:55:17;;;;;;;41.65;38.28;;;13.50;99.90;;;;;;5019771;28;20037;-83
2022/11/14 09:57:43;;;;;;;47.58;44.17;;;13.50;99.90;;;;;;5035320;28;20409;-83
2022/11/14 10:00:20;;;;;;;44.80;41.42;;;13.50;99.90;;;;;;5019099;28;20450;-83
2022/11/14 10:03:10;;;;;;;47.20;43.78;;;13.50;99.90;;;;;;5035708;28;20052;-82
2022/11/14 10:05:45;;;;;;;46.57;43.00;;;13.60;99.90;;;;;;5053326;28;20033;-82
2022/11/14 10:08:33;;;;;;;47.45;43.95;;;13.60;99.90;;;;;;5052386;28;20028;-82
2022/11/14 10:11:08;;;;;;;49.60;45.88;;;13.70;99.90;;;;;;5053330;28;20474;-83
2022/11/14 10:14:03;;;;;;;46.70;43.25;;;13.70;99.90;;;;;;5053208;28;20036;-82
2022/11/14 10:16:57;;;;;;;44.88;41.67;;;13.60;99.90;;;;;;5034978;28;20359;-83
2022/11/14 10:19:46;;;;;;;49.05;45.00;;;13.60;99.90;;;;;;5052727;28;20035;-83
2022/11/14 10:22:39;;;;;;;41.97;38.67;;;13.60;99.90;;;;;;5020167;28;20488;-84
2022/11/14 10:25:25;;;;;;;45.30;42.03;;;13.60;99.90;;;;;;4973532;28;20047;-84
2022/11/14 10:28:07;;;;;;;49.47;45.78;;;13.60;99.90;;;;;;4956804;28;20045;-84
2022/11/14 10:30:50;;;;;;;45.67;42.38;;;13.60;99.90;;;;;;4954770;28;20033;-84
2022/11/14 10:33:25;;;;;;;47.00;43.67;;;13.60;99.90;;;;;;4955995;28;20451;-83
2022/11/14 10:36:20;;;;;;;44.15;41.05;;;13.60;99.90;;;;;;4972321;28;20059;-84
2022/11/14 10:39:21;;;;;;;43.42;40.53;;;13.60;99.90;;;;;;4957901;28;20407;-84
2022/11/14 10:41:48;;;;;;;41.40;38.50;;;13.60;99.90;;;;;;4895449;29;20048;-83
2022/11/14 10:44:17;;;;;;;43.05;40.08;;;13.60;99.90;;;;;;4881144;29;20044;-84
2022/11/14 10:46:46;;;;;;;45.08;42.05;;;13.60;99.90;;;;;;4879364;29;20032;-84
2022/11/14 10:49:19;;;;;;;44.72;41.40;;;13.70;99.90;;;;;;4880307;29;20044;-84
2022/11/14 10:51:48;;;;;;;43.70;40.92;;;13.80;99.90;;;;;;4880268;29;20040;-84
2022/11/14 10:54:18;;;;;;;42.10;39.35;;;13.90;99.90;;;;;;4895380;29;20488;-84
2022/11/14 10:56:46;;;;;;;47.80;44.42;;;13.80;99.90;;;;;;4879924;29;20076;-84
2022/11/14 10:59:12;;;;;;;45.42;42.20;;;13.90;99.90;;;;;;4879228;29;20037;-84
2022/11/14 11:01:45;;;;;;;47.30;44.42;;;13.90;99.90;;;;;;4876838;29;20032;-84
2022/11/14 11:04:21;;;;;;;42.40;39.20;;;13.90;99.90;;;;;;4921011;29;20046;-84
2022/11/14 11:06:48;;;;;;;44.42;41.30;;;14.00;99.90;;;;;;4951633;29;20038;-83
2022/11/14 11:12:03;;;;;;;40.55;37.95;;;14.00;99.90;;;;;;4939602;29;20507;-84
2022/11/14 11:14:29;;;;;;;39.50;37.00;;;14.10;99.90;;;;;;4951355;29;20062;-84
2022/11/14 11:17:11;;;;;;;43.50;40.70;;;14.10;99.90;;;;;;4919278;29;20047;-84
2022/11/14 11:19:37;;;;;;;39.33;36.70;;;14.20;99.90;;;;;;5038077;28;20041;-84
2022/11/14 11:22:04;;;;;;;41.80;39.25;;;14.20;99.90;;;;;;5034578;28;20025;-84
2022/11/14 11:24:34;;;;;;;45.75;42.55;;;14.20;99.90;;;;;;5034022;28;20040;-84
2022/11/14 11:27:24;;;;;;;44.90;41.95;;;14.30;99.90;;;;;;5052201;28;20040;-84
2022/11/14 11:30:02;;;;;;;47.80;44.75;;;14.40;99.90;;;;;;5051303;28;20040;-84
2022/11/14 11:32:28;;;;;;;42.08;39.63;;;14.50;99.90;;;;;;5051072;28;20036;-84
2022/11/14 11:34:55;;;;;;;45.53;42.72;;;14.50;99.90;;;;;;5034507;28;20025;-84
2022/11/14 11:37:25;;;;;;;41.42;38.88;;;14.60;99.90;;;;;;5034804;28;20087;-85
2022/11/14 11:40:15;;;;;;;51.72;48.17;;;14.70;99.90;;;;;;5033910;28;20045;-84
2022/11/14 11:42:55;;;;;;;48.13;45.10;;;14.80;99.90;;;;;;5052097;28;20397;-84
2022/11/14 11:45:21;;;;;;;66.57;62.88;;;14.90;99.90;;;;;;5034982;28;20039;-85
2022/11/14 11:47:54;;;;;;;58.83;55.30;;;15.00;99.90;;;;;;5034324;28;20036;-85
2022/11/14 11:50:21;;;;;;;53.22;50.08;;;14.90;99.90;;;;;;5034329;28;20033;-85
2022/11/14 11:53:07;;;;;;;58.70;55.40;;;15.00;99.90;;;;;;5017214;28;20037;-84
2022/11/14 11:55:34;;;;;;;48.65;45.75;;;15.00;99.90;;;;;;5052007;28;20025;-84
2022/11/14 11:58:07;;;;;;;41.20;38.92;;;15.00;99.90;;;;;;5018009;28;20036;-84
2022/11/14 12:00:33;;;;;;;42.58;40.08;;;15.00;99.90;;;;;;5036417;28;20048;-85
2022/11/14 12:03:00;;;;;;;46.15;43.45;;;14.90;99.90;;;;;;5038020;28;20030;-85
2022/11/14 12:06:12;;;;;;;44.50;42.00;;;14.90;99.90;;;;;;5055053;28;20033;-84
2022/11/14 12:08:43;;;;;;;44.47;41.85;;;15.00;99.90;;;;;;5024632;28;20025;-84
2022/11/14 12:11:17;;;;;;;41.90;39.38;;;14.90;99.90;;;;;;5037910;28;20032;-85
2022/11/14 12:14:22;;;;;;;44.60;41.90;;;14.80;99.90;;;;;;5021344;28;20059;-84
2022/11/14 12:16:54;;;;;;;44.45;41.90;;;14.90;99.90;;;;;;5045328;28;20052;-85
2022/11/14 12:19:40;;;;;;;47.92;45.00;;;14.90;99.90;;;;;;5055542;28;20025;-84
2022/11/14 12:22:53;;;;;;;48.65;45.95;;;14.90;99.90;;;;;;5037682;28;20025;-85
2022/11/14 12:25:28;;;;;;;46.83;43.47;;;14.90;99.90;;;;;;4974274;28;20384;-84
2022/11/14 12:28:07;;;;;;;44.65;42.25;;;14.90;99.90;;;;;;4974560;28;20034;-84
2022/11/14 12:30:33;;;;;;;46.00;43.08;;;14.90;99.90;;;;;;4957529;28;20030;-84
2022/11/14 12:33:07;;;;;;;37.13;34.97;;;14.90;99.90;;;;;;4974411;28;20120;-85
2022/11/14 12:35:34;;;;;;;35.88;33.58;;;14.90;99.90;;;;;;4958067;28;20035;-85
2022/11/14 12:38:04;;;;;;;35.63;33.33;;;14.90;99.90;;;;;;4974120;28;20038;-84
2022/11/14 12:40:41;;;;;;;30.17;28.48;;;15.00;99.90;;;;;;4957977;28;20042;-85